Terminal Aerodrome Forecast
Issued by NWS Duluth, MN

Home | Current Version | Previous Version | Text Only | Print | Product List | Glossary On
Versions: 1 2 3 4 5 6 7 8 9 10 11 12 13 14 15 16 17 18 19 20 21 22 23 24 25 26 27 28
000
FTUS43 KDLH 292300
TAFDLH
TAF
KDLH 292339Z 3000/3024 35013G18KT P6SM BKN014 OVC025
     FM300200 33012KT P6SM BKN025
     FM300400 35010KT P6SM SCT025 BKN200
     FM301400 36013KT P6SM SKC
     FM302200 06009KT P6SM SKC=

USA.gov is the U.S. government's official web portal to all federal, state and local government web resources and services.